sensor_id;sensor_type;location;lat;lon;timestamp;pressure;altitude;pressure_sealevel;temperature;humidity
37390;BME280;39679;49.000;8.390;2022-08-19T00:00:25;99790.72;;;25.76;52.33
37390;BME280;39679;49.000;8.390;2022-08-19T00:05:25;99785.56;;;25.73;52.76
37390;BME280;39679;49.000;8.390;2022-08-19T00:10:26;99795.53;;;25.71;52.60
37390;BME280;39679;49.000;8.390;2022-08-19T00:15:26;99804.41;;;25.72;52.38
37390;BME280;39679;49.000;8.390;2022-08-19T00:20:27;99800.63;;;25.76;52.50
37390;BME280;39679;49.000;8.390;2022-08-19T00:25:27;99794.84;;;25.68;52.62
37390;BME280;39679;49.000;8.390;2022-08-19T00:30:28;99792.53;;;25.62;53.10
37390;BME280;39679;49.000;8.390;2022-08-19T00:35:28;99815.13;;;25.58;52.90
37390;BME280;39679;49.000;8.390;2022-08-19T00:40:28;99813.44;;;25.57;53.33
37390;BME280;39679;49.000;8.390;2022-08-19T00:45:29;99805.56;;;25.54;53.99
37390;BME280;39679;49.000;8.390;2022-08-19T00:50:29;99791.56;;;25.49;54.27
37390;BME280;39679;49.000;8.390;2022-08-19T00:55:31;99759.28;;;25.50;54.25
37390;BME280;39679;49.000;8.390;2022-08-19T01:00:33;99767.81;;;25.57;54.33
37390;BME280;39679;49.000;8.390;2022-08-19T01:05:34;99776.34;;;25.63;54.52
37390;BME280;39679;49.000;8.390;2022-08-19T01:10:53;99791.97;;;25.57;55.28
37390;BME280;39679;49.000;8.390;2022-08-19T01:16:02;99797.50;;;25.54;55.52
37390;BME280;39679;49.000;8.390;2022-08-19T01:21:09;99793.88;;;25.39;56.14
37390;BME280;39679;49.000;8.390;2022-08-19T01:26:20;99787.19;;;25.32;56.58
37390;BME280;39679;49.000;8.390;2022-08-19T01:31:24;99785.91;;;25.23;56.74
37390;BME280;39679;49.000;8.390;2022-08-19T01:36:32;99791.47;;;25.20;56.82
37390;BME280;39679;49.000;8.390;2022-08-19T01:41:34;99793.09;;;25.23;57.07
37390;BME280;39679;49.000;8.390;2022-08-19T01:46:36;99799.13;;;25.12;57.07
37390;BME280;39679;49.000;8.390;2022-08-19T01:51:37;99788.72;;;25.06;57.29
37390;BME280;39679;49.000;8.390;2022-08-19T01:56:38;99787.88;;;25.06;57.39
37390;BME280;39679;49.000;8.390;2022-08-19T02:01:39;99783.28;;;25.08;57.41
37390;BME280;39679;49.000;8.390;2022-08-19T02:06:40;99782.31;;;25.09;57.28
37390;BME280;39679;49.000;8.390;2022-08-19T02:11:41;99781.44;;;25.08;57.38
37390;BME280;39679;49.000;8.390;2022-08-19T02:16:41;99791.13;;;25.11;57.42
37390;BME280;39679;49.000;8.390;2022-08-19T02:21:41;99788.28;;;25.14;57.18
37390;BME280;39679;49.000;8.390;2022-08-19T02:26:42;99790.88;;;25.15;57.00
37390;BME280;39679;49.000;8.390;2022-08-19T02:31:42;99789.22;;;25.13;56.92
37390;BME280;39679;49.000;8.390;2022-08-19T02:36:42;99794.19;;;25.05;56.80
37390;BME280;39679;49.000;8.390;2022-08-19T02:41:43;99788.72;;;25.06;57.04
37390;BME280;39679;49.000;8.390;2022-08-19T02:46:46;99780.88;;;25.03;57.38
37390;BME280;39679;49.000;8.390;2022-08-19T02:51:46;99780.41;;;25.11;56.90
37390;BME280;39679;49.000;8.390;2022-08-19T02:56:47;99774.78;;;25.15;56.86
37390;BME280;39679;49.000;8.390;2022-08-19T03:01:47;99777.47;;;25.15;56.89
37390;BME280;39679;49.000;8.390;2022-08-19T03:06:47;99783.34;;;25.22;56.65
37390;BME280;39679;49.000;8.390;2022-08-19T03:11:48;99795.59;;;25.26;56.71
37390;BME280;39679;49.000;8.390;2022-08-19T03:16:51;99794.63;;;25.27;56.57
37390;BME280;39679;49.000;8.390;2022-08-19T03:21:52;99786.69;;;25.25;57.11
37390;BME280;39679;49.000;8.390;2022-08-19T03:26:54;99791.94;;;25.27;57.20
37390;BME280;39679;49.000;8.390;2022-08-19T03:31:55;99794.72;;;25.25;57.22
37390;BME280;39679;49.000;8.390;2022-08-19T03:36:57;99801.34;;;25.20;57.63
37390;BME280;39679;49.000;8.390;2022-08-19T03:41:58;99806.19;;;25.13;58.19
37390;BME280;39679;49.000;8.390;2022-08-19T03:46:59;99799.44;;;25.06;58.10
37390;BME280;39679;49.000;8.390;2022-08-19T03:52:00;99798.97;;;25.00;58.48
37390;BME280;39679;49.000;8.390;2022-08-19T03:57:01;99801.66;;;25.00;58.59
37390;BME280;39679;49.000;8.390;2022-08-19T04:02:07;99797.69;;;24.91;58.48
37390;BME280;39679;49.000;8.390;2022-08-19T04:07:09;99794.75;;;24.96;58.75
37390;BME280;39679;49.000;8.390;2022-08-19T04:12:09;99796.66;;;24.94;58.80
37390;BME280;39679;49.000;8.390;2022-08-19T04:17:09;99804.69;;;24.94;58.95
37390;BME280;39679;49.000;8.390;2022-08-19T04:22:10;99810.06;;;24.94;58.53
37390;BME280;39679;49.000;8.390;2022-08-19T04:27:10;99807.53;;;24.91;59.23
37390;BME280;39679;49.000;8.390;2022-08-19T04:32:11;99804.28;;;24.86;58.58
37390;BME280;39679;49.000;8.390;2022-08-19T04:37:11;99797.06;;;24.86;58.94
37390;BME280;39679;49.000;8.390;2022-08-19T04:42:11;99809.13;;;24.79;58.56
37390;BME280;39679;49.000;8.390;2022-08-19T04:47:12;99807.88;;;24.85;58.13
37390;BME280;39679;49.000;8.390;2022-08-19T04:52:12;99812.38;;;24.84;57.64
37390;BME280;39679;49.000;8.390;2022-08-19T04:57:13;99817.75;;;24.84;57.65
37390;BME280;39679;49.000;8.390;2022-08-19T05:02:13;99815.66;;;24.89;57.50
37390;BME280;39679;49.000;8.390;2022-08-19T05:07:13;99826.41;;;24.89;57.17
37390;BME280;39679;49.000;8.390;2022-08-19T05:12:14;99822.25;;;24.84;56.59
37390;BME280;39679;49.000;8.390;2022-08-19T05:17:15;99818.81;;;24.82;56.84
37390;BME280;39679;49.000;8.390;2022-08-19T05:22:15;99835.22;;;24.91;57.48
37390;BME280;39679;49.000;8.390;2022-08-19T05:27:15;99844.38;;;24.87;58.35
37390;BME280;39679;49.000;8.390;2022-08-19T05:32:16;99852.78;;;24.81;58.52
37390;BME280;39679;49.000;8.390;2022-08-19T05:37:16;99869.53;;;24.85;58.83
37390;BME280;39679;49.000;8.390;2022-08-19T05:42:16;99867.47;;;24.74;58.89
37390;BME280;39679;49.000;8.390;2022-08-19T05:47:17;99889.22;;;24.68;58.67
37390;BME280;39679;49.000;8.390;2022-08-19T05:52:19;99895.59;;;24.66;58.38
37390;BME280;39679;49.000;8.390;2022-08-19T05:57:19;99901.72;;;24.68;58.37
37390;BME280;39679;49.000;8.390;2022-08-19T06:02:20;99900.13;;;24.65;58.15
37390;BME280;39679;49.000;8.390;2022-08-19T06:07:20;99902.25;;;24.59;58.32
37390;BME280;39679;49.000;8.390;2022-08-19T06:12:20;99896.38;;;24.52;58.29
37390;BME280;39679;49.000;8.390;2022-08-19T06:17:21;99896.72;;;24.62;58.03
37390;BME280;39679;49.000;8.390;2022-08-19T06:22:22;99902.16;;;24.60;57.40
37390;BME280;39679;49.000;8.390;2022-08-19T06:27:23;99904.06;;;24.58;57.72
37390;BME280;39679;49.000;8.390;2022-08-19T06:32:23;99903.03;;;24.61;56.31
37390;BME280;39679;49.000;8.390;2022-08-19T06:37:24;99909.69;;;24.53;56.32
37390;BME280;39679;49.000;8.390;2022-08-19T06:42:24;99923.16;;;24.52;55.91
37390;BME280;39679;49.000;8.390;2022-08-19T06:47:24;99923.84;;;24.55;55.70
37390;BME280;39679;49.000;8.390;2022-08-19T06:52:25;99918.00;;;24.49;55.48
37390;BME280;39679;49.000;8.390;2022-08-19T06:57:26;99915.59;;;24.27;55.99
37390;BME280;39679;49.000;8.390;2022-08-19T07:02:26;99915.00;;;24.22;55.67
37390;BME280;39679;49.000;8.390;2022-08-19T07:07:27;99924.75;;;24.23;55.57
37390;BME280;39679;49.000;8.390;2022-08-19T07:12:29;99921.28;;;24.21;55.42
37390;BME280;39679;49.000;8.390;2022-08-19T07:17:30;99920.72;;;24.15;55.13
37390;BME280;39679;49.000;8.390;2022-08-19T07:22:31;99923.97;;;24.21;54.92
37390;BME280;39679;49.000;8.390;2022-08-19T07:27:31;99922.19;;;24.37;54.81
37390;BME280;39679;49.000;8.390;2022-08-19T07:32:31;99920.91;;;24.44;54.12
37390;BME280;39679;49.000;8.390;2022-08-19T07:37:32;99908.63;;;24.40;54.11
37390;BME280;39679;49.000;8.390;2022-08-19T07:42:32;99915.72;;;24.41;54.17
37390;BME280;39679;49.000;8.390;2022-08-19T07:47:33;99916.47;;;24.43;53.96
37390;BME280;39679;49.000;8.390;2022-08-19T07:52:34;99919.41;;;24.39;53.88
37390;BME280;39679;49.000;8.390;2022-08-19T07:57:34;99931.19;;;24.52;53.75
37390;BME280;39679;49.000;8.390;2022-08-19T08:02:34;99931.09;;;24.53;53.36
37390;BME280;39679;49.000;8.390;2022-08-19T08:07:35;99929.06;;;24.59;53.15
37390;BME280;39679;49.000;8.390;2022-08-19T08:12:39;99917.38;;;24.60;52.94
37390;BME280;39679;49.000;8.390;2022-08-19T08:17:40;99924.81;;;24.70;52.88
37390;BME280;39679;49.000;8.390;2022-08-19T08:22:44;99926.41;;;24.74;52.81
37390;BME280;39679;49.000;8.390;2022-08-19T08:27:45;99923.63;;;24.76;52.60
37390;BME280;39679;49.000;8.390;2022-08-19T08:32:46;99922.13;;;24.87;52.29
37390;BME280;39679;49.000;8.390;2022-08-19T08:37:48;99921.91;;;24.90;51.93
37390;BME280;39679;49.000;8.390;2022-08-19T08:42:58;99932.84;;;24.87;51.97
37390;BME280;39679;49.000;8.390;2022-08-19T08:48:16;99930.75;;;24.92;52.10
37390;BME280;39679;49.000;8.390;2022-08-19T08:53:19;99932.25;;;24.98;51.98
37390;BME280;39679;49.000;8.390;2022-08-19T08:58:30;99927.28;;;24.90;51.83
37390;BME280;39679;49.000;8.390;2022-08-19T09:03:33;99930.25;;;25.01;51.59
37390;BME280;39679;49.000;8.390;2022-08-19T09:09:04;99927.22;;;25.07;51.48
37390;BME280;39679;49.000;8.390;2022-08-19T09:19:24;99933.00;;;25.15;51.34
37390;BME280;39679;49.000;8.390;2022-08-19T09:24:25;99926.59;;;25.18;50.85
37390;BME280;39679;49.000;8.390;2022-08-19T09:29:25;99928.06;;;25.23;50.76
37390;BME280;39679;49.000;8.390;2022-08-19T09:34:26;99918.28;;;25.22;50.62
37390;BME280;39679;49.000;8.390;2022-08-19T09:39:26;99925.22;;;25.26;50.25
37390;BME280;39679;49.000;8.390;2022-08-19T09:44:26;99913.25;;;25.32;50.09
37390;BME280;39679;49.000;8.390;2022-08-19T09:49:27;99910.47;;;25.33;49.72
37390;BME280;39679;49.000;8.390;2022-08-19T09:54:27;99920.31;;;25.33;49.65
37390;BME280;39679;49.000;8.390;2022-08-19T09:59:36;99919.03;;;25.40;49.14
37390;BME280;39679;49.000;8.390;2022-08-19T10:04:39;99919.56;;;25.47;49.11
37390;BME280;39679;49.000;8.390;2022-08-19T10:09:40;99923.13;;;25.47;48.97
37390;BME280;39679;49.000;8.390;2022-08-19T10:14:40;99923.91;;;25.49;48.60
37390;BME280;39679;49.000;8.390;2022-08-19T10:19:41;99930.09;;;25.50;48.65
37390;BME280;39679;49.000;8.390;2022-08-19T10:24:41;99928.28;;;25.50;48.51
37390;BME280;39679;49.000;8.390;2022-08-19T10:29:41;99919.13;;;25.54;48.05
37390;BME280;39679;49.000;8.390;2022-08-19T10:34:42;99916.25;;;25.57;48.38
37390;BME280;39679;49.000;8.390;2022-08-19T10:39:45;99899.97;;;25.60;48.19
37390;BME280;39679;49.000;8.390;2022-08-19T10:44:46;99911.75;;;25.58;47.77
37390;BME280;39679;49.000;8.390;2022-08-19T10:49:48;99913.13;;;25.65;47.47
37390;BME280;39679;49.000;8.390;2022-08-19T10:54:49;99899.31;;;25.71;47.38
37390;BME280;39679;49.000;8.390;2022-08-19T10:59:49;99892.81;;;25.75;47.35
37390;BME280;39679;49.000;8.390;2022-08-19T11:04:50;99890.81;;;25.78;47.43
37390;BME280;39679;49.000;8.390;2022-08-19T11:09:50;99886.22;;;25.80;47.46
37390;BME280;39679;49.000;8.390;2022-08-19T11:14:50;99879.69;;;25.84;47.36
37390;BME280;39679;49.000;8.390;2022-08-19T11:19:51;99875.88;;;25.88;46.98
37390;BME280;39679;49.000;8.390;2022-08-19T11:24:51;99867.81;;;25.88;46.71
37390;BME280;39679;49.000;8.390;2022-08-19T11:29:51;99865.06;;;25.90;46.93
37390;BME280;39679;49.000;8.390;2022-08-19T11:34:52;99861.78;;;25.85;46.63
37390;BME280;39679;49.000;8.390;2022-08-19T11:39:52;99853.06;;;25.81;46.44
37390;BME280;39679;49.000;8.390;2022-08-19T11:44:53;99853.31;;;25.77;46.68
37390;BME280;39679;49.000;8.390;2022-08-19T11:49:54;99861.59;;;25.88;46.63
37390;BME280;39679;49.000;8.390;2022-08-19T11:54:54;99855.84;;;25.94;46.56
37390;BME280;39679;49.000;8.390;2022-08-19T11:59:54;99850.75;;;26.03;46.04
37390;BME280;39679;49.000;8.390;2022-08-19T12:04:55;99860.38;;;26.07;45.76
37390;BME280;39679;49.000;8.390;2022-08-19T12:09:55;99869.88;;;26.13;44.45
37390;BME280;39679;49.000;8.390;2022-08-19T12:14:55;99869.97;;;26.11;44.37
37390;BME280;39679;49.000;8.390;2022-08-19T12:19:55;99878.38;;;26.05;44.76
37390;BME280;39679;49.000;8.390;2022-08-19T12:24:56;99872.94;;;26.07;45.02
37390;BME280;39679;49.000;8.390;2022-08-19T12:29:56;99878.03;;;26.11;45.43
37390;BME280;39679;49.000;8.390;2022-08-19T12:34:57;99866.97;;;26.02;45.44
37390;BME280;39679;49.000;8.390;2022-08-19T12:39:57;99875.47;;;26.10;45.83
37390;BME280;39679;49.000;8.390;2022-08-19T12:44:58;99877.28;;;26.09;46.05
37390;BME280;39679;49.000;8.390;2022-08-19T12:49:58;99871.63;;;26.14;45.64
37390;BME280;39679;49.000;8.390;2022-08-19T12:54:58;99869.03;;;26.13;44.34
37390;BME280;39679;49.000;8.390;2022-08-19T13:00:09;99868.84;;;26.16;43.72
37390;BME280;39679;49.000;8.390;2022-08-19T13:05:14;99861.38;;;26.21;43.68
37390;BME280;39679;49.000;8.390;2022-08-19T13:10:19;99848.38;;;26.27;44.12
37390;BME280;39679;49.000;8.390;2022-08-19T13:15:21;99852.59;;;26.31;44.22
37390;BME280;39679;49.000;8.390;2022-08-19T13:20:22;99840.91;;;26.32;43.47
37390;BME280;39679;49.000;8.390;2022-08-19T13:25:23;99842.56;;;26.35;43.12
37390;BME280;39679;49.000;8.390;2022-08-19T13:30:24;99834.28;;;26.38;44.32
37390;BME280;39679;49.000;8.390;2022-08-19T13:35:24;99829.00;;;26.36;43.76
37390;BME280;39679;49.000;8.390;2022-08-19T13:40:25;99826.50;;;26.33;43.55
37390;BME280;39679;49.000;8.390;2022-08-19T13:45:26;99832.63;;;26.35;43.05
37390;BME280;39679;49.000;8.390;2022-08-19T13:50:29;99823.81;;;26.33;41.95
37390;BME280;39679;49.000;8.390;2022-08-19T13:55:30;99822.97;;;26.33;40.93
37390;BME280;39679;49.000;8.390;2022-08-19T14:00:35;99821.06;;;26.35;41.94
37390;BME280;39679;49.000;8.390;2022-08-19T14:05:36;99816.75;;;26.32;41.12
37390;BME280;39679;49.000;8.390;2022-08-19T14:10:37;99813.38;;;26.43;39.42
37390;BME280;39679;49.000;8.390;2022-08-19T14:15:37;99822.94;;;26.47;39.23
37390;BME280;39679;49.000;8.390;2022-08-19T14:20:38;99827.34;;;26.48;39.48
37390;BME280;39679;49.000;8.390;2022-08-19T14:25:38;99820.38;;;26.45;40.08
37390;BME280;39679;49.000;8.390;2022-08-19T14:30:38;99817.69;;;26.45;39.98
37390;BME280;39679;49.000;8.390;2022-08-19T14:35:39;99829.28;;;26.46;40.39
37390;BME280;39679;49.000;8.390;2022-08-19T14:40:39;99815.19;;;26.42;40.79
37390;BME280;39679;49.000;8.390;2022-08-19T14:45:39;99810.78;;;26.41;40.99
37390;BME280;39679;49.000;8.390;2022-08-19T14:50:40;99810.00;;;26.39;41.58
37390;BME280;39679;49.000;8.390;2022-08-19T14:55:42;99806.66;;;26.36;41.34
37390;BME280;39679;49.000;8.390;2022-08-19T15:00:42;99808.47;;;26.35;41.52
37390;BME280;39679;49.000;8.390;2022-08-19T15:05:42;99811.25;;;26.34;41.24
37390;BME280;39679;49.000;8.390;2022-08-19T15:10:44;99812.22;;;26.33;41.62
37390;BME280;39679;49.000;8.390;2022-08-19T15:15:44;99829.19;;;26.33;41.12
37390;BME280;39679;49.000;8.390;2022-08-19T15:20:45;99823.81;;;26.33;41.54
37390;BME280;39679;49.000;8.390;2022-08-19T15:25:45;99822.88;;;26.34;41.23
37390;BME280;39679;49.000;8.390;2022-08-19T15:30:46;99825.56;;;26.34;41.49
37390;BME280;39679;49.000;8.390;2022-08-19T15:35:47;99837.25;;;26.33;41.77
37390;BME280;39679;49.000;8.390;2022-08-19T15:40:49;99819.41;;;26.32;42.19
37390;BME280;39679;49.000;8.390;2022-08-19T15:45:49;99822.97;;;26.33;42.25
37390;BME280;39679;49.000;8.390;2022-08-19T15:50:49;99815.00;;;26.31;42.16
37390;BME280;39679;49.000;8.390;2022-08-19T15:55:50;99830.28;;;26.31;42.19
37390;BME280;39679;49.000;8.390;2022-08-19T16:00:50;99820.47;;;26.30;42.10
37390;BME280;39679;49.000;8.390;2022-08-19T16:05:50;99827.66;;;26.29;42.17
37390;BME280;39679;49.000;8.390;2022-08-19T16:10:51;99816.06;;;26.29;42.22
37390;BME280;39679;49.000;8.390;2022-08-19T16:15:51;99816.06;;;26.29;41.99
37390;BME280;39679;49.000;8.390;2022-08-19T16:20:51;99828.63;;;26.28;42.11
37390;BME280;39679;49.000;8.390;2022-08-19T16:25:52;99812.63;;;26.27;42.42
37390;BME280;39679;49.000;8.390;2022-08-19T16:30:52;99828.75;;;26.27;42.13
37390;BME280;39679;49.000;8.390;2022-08-19T16:35:53;99820.69;;;26.27;42.12
37390;BME280;39679;49.000;8.390;2022-08-19T16:40:53;99829.59;;;26.27;42.18
37390;BME280;39679;49.000;8.390;2022-08-19T16:45:54;99818.00;;;26.27;41.73
37390;BME280;39679;49.000;8.390;2022-08-19T16:50:59;99828.75;;;26.27;41.44
37390;BME280;39679;49.000;8.390;2022-08-19T16:55:59;99836.69;;;26.28;41.60
37390;BME280;39679;49.000;8.390;2022-08-19T17:01:02;99828.63;;;26.28;41.55
37390;BME280;39679;49.000;8.390;2022-08-19T17:06:18;99841.09;;;26.29;41.80
37390;BME280;39679;49.000;8.390;2022-08-19T17:11:21;99839.38;;;26.28;41.12
37390;BME280;39679;49.000;8.390;2022-08-19T17:16:25;99839.28;;;26.30;40.87
37390;BME280;39679;49.000;8.390;2022-08-19T17:21:27;99842.84;;;26.30;40.66
37390;BME280;39679;49.000;8.390;2022-08-19T17:26:29;99843.59;;;26.32;40.65
37390;BME280;39679;49.000;8.390;2022-08-19T17:31:30;99850.78;;;26.32;40.64
37390;BME280;39679;49.000;8.390;2022-08-19T17:36:31;99853.38;;;26.33;40.73
37390;BME280;39679;49.000;8.390;2022-08-19T17:41:32;99861.44;;;26.33;40.69
37390;BME280;39679;49.000;8.390;2022-08-19T17:46:33;99851.56;;;26.34;41.35
37390;BME280;39679;49.000;8.390;2022-08-19T17:56:33;99862.31;;;26.34;41.46
37390;BME280;39679;49.000;8.390;2022-08-19T18:01:34;99867.66;;;26.34;40.85
37390;BME280;39679;49.000;8.390;2022-08-19T18:06:34;99872.09;;;26.35;40.60
37390;BME280;39679;49.000;8.390;2022-08-19T18:11:35;99877.56;;;26.33;40.27
37390;BME280;39679;49.000;8.390;2022-08-19T18:16:35;99882.91;;;26.33;39.96
37390;BME280;39679;49.000;8.390;2022-08-19T18:21:36;99890.81;;;26.36;39.98
37390;BME280;39679;49.000;8.390;2022-08-19T18:26:36;99890.91;;;26.35;40.08
37390;BME280;39679;49.000;8.390;2022-08-19T18:31:37;99894.44;;;26.35;40.14
37390;BME280;39679;49.000;8.390;2022-08-19T18:36:37;99899.03;;;26.33;40.18
37390;BME280;39679;49.000;8.390;2022-08-19T18:41:38;99907.31;;;26.30;40.20
37390;BME280;39679;49.000;8.390;2022-08-19T18:46:38;99910.94;;;26.29;40.49
37390;BME280;39679;49.000;8.390;2022-08-19T18:51:39;99913.06;;;26.24;40.25
37390;BME280;39679;49.000;8.390;2022-08-19T18:56:39;99922.06;;;26.23;40.38
37390;BME280;39679;49.000;8.390;2022-08-19T19:01:42;99926.22;;;26.15;40.17
37390;BME280;39679;49.000;8.390;2022-08-19T19:06:43;99939.28;;;26.05;40.14
37390;BME280;39679;49.000;8.390;2022-08-19T19:11:46;99944.16;;;25.98;40.58
37390;BME280;39679;49.000;8.390;2022-08-19T19:16:48;99949.06;;;25.92;40.33
37390;BME280;39679;49.000;8.390;2022-08-19T19:21:49;99955.84;;;25.83;40.02
37390;BME280;39679;49.000;8.390;2022-08-19T19:26:51;99954.28;;;25.79;40.05
37390;BME280;39679;49.000;8.390;2022-08-19T19:31:52;99963.66;;;25.72;40.45
37390;BME280;39679;49.000;8.390;2022-08-19T19:36:53;99975.78;;;25.64;40.52
37390;BME280;39679;49.000;8.390;2022-08-19T19:41:53;99981.25;;;25.62;40.52
37390;BME280;39679;49.000;8.390;2022-08-19T19:46:53;99984.69;;;25.64;40.75
37390;BME280;39679;49.000;8.390;2022-08-19T19:51:54;99986.84;;;25.73;40.41
37390;BME280;39679;49.000;8.390;2022-08-19T19:56:54;99995.59;;;25.77;40.80
37390;BME280;39679;49.000;8.390;2022-08-19T20:01:54;100008.06;;;25.78;40.73
37390;BME280;39679;49.000;8.390;2022-08-19T20:06:55;100017.22;;;25.74;40.83
37390;BME280;39679;49.000;8.390;2022-08-19T20:11:55;100020.63;;;25.77;40.87
37390;BME280;39679;49.000;8.390;2022-08-19T20:16:57;100033.53;;;25.71;41.31
37390;BME280;39679;49.000;8.390;2022-08-19T20:21:59;100030.75;;;25.72;41.41
37390;BME280;39679;49.000;8.390;2022-08-19T20:27:01;100050.75;;;25.67;41.77
37390;BME280;39679;49.000;8.390;2022-08-19T20:32:02;100057.84;;;25.68;42.01
37390;BME280;39679;49.000;8.390;2022-08-19T20:37:03;100055.34;;;25.65;42.42
37390;BME280;39679;49.000;8.390;2022-08-19T20:42:03;100069.22;;;25.57;42.66
37390;BME280;39679;49.000;8.390;2022-08-19T20:47:04;100069.03;;;25.60;42.72
37390;BME280;39679;49.000;8.390;2022-08-19T20:52:04;100072.59;;;25.61;43.07
37390;BME280;39679;49.000;8.390;2022-08-19T20:57:05;100071.63;;;25.62;43.17
37390;BME280;39679;49.000;8.390;2022-08-19T21:02:05;100070.69;;;25.63;43.39
37390;BME280;39679;49.000;8.390;2022-08-19T21:07:05;100078.31;;;25.55;43.95
37390;BME280;39679;49.000;8.390;2022-08-19T21:12:07;100093.28;;;25.59;44.17
37390;BME280;39679;49.000;8.390;2022-08-19T21:17:08;100101.66;;;25.53;44.51
37390;BME280;39679;49.000;8.390;2022-08-19T21:22:09;100091.97;;;25.50;44.94
37390;BME280;39679;49.000;8.390;2022-08-19T21:27:09;100098.56;;;25.45;45.76
37390;BME280;39679;49.000;8.390;2022-08-19T21:32:09;100104.56;;;25.32;46.31
37390;BME280;39679;49.000;8.390;2022-08-19T21:37:10;100105.94;;;25.40;46.30
37390;BME280;39679;49.000;8.390;2022-08-19T21:42:11;100110.63;;;25.36;46.42
37390;BME280;39679;49.000;8.390;2022-08-19T21:47:11;100107.84;;;25.38;46.55
37390;BME280;39679;49.000;8.390;2022-08-19T21:52:12;100107.75;;;25.39;46.67
37390;BME280;39679;49.000;8.390;2022-08-19T21:57:12;100123.94;;;25.38;46.67
37390;BME280;39679;49.000;8.390;2022-08-19T22:02:13;100121.81;;;25.44;46.95
37390;BME280;39679;49.000;8.390;2022-08-19T22:07:14;100121.13;;;25.41;46.83
37390;BME280;39679;49.000;8.390;2022-08-19T22:12:23;100122.75;;;25.43;47.15
37390;BME280;39679;49.000;8.390;2022-08-19T22:17:25;100126.97;;;25.31;47.23
37390;BME280;39679;49.000;8.390;2022-08-19T22:22:29;100130.09;;;25.40;47.17
37390;BME280;39679;49.000;8.390;2022-08-19T22:27:29;100131.41;;;25.32;47.59
37390;BME280;39679;49.000;8.390;2022-08-19T22:32:30;100128.00;;;25.29;47.58
37390;BME280;39679;49.000;8.390;2022-08-19T22:37:30;100130.44;;;25.33;47.41
37390;BME280;39679;49.000;8.390;2022-08-19T22:42:30;100134.38;;;25.44;47.21
37390;BME280;39679;49.000;8.390;2022-08-19T22:47:31;100130.97;;;25.40;47.37
37390;BME280;39679;49.000;8.390;2022-08-19T22:52:31;100132.66;;;25.25;47.70
37390;BME280;39679;49.000;8.390;2022-08-19T22:57:32;100126.84;;;25.17;48.19
37390;BME280;39679;49.000;8.390;2022-08-19T23:02:34;100120.38;;;25.37;47.46
37390;BME280;39679;49.000;8.390;2022-08-19T23:07:35;100118.91;;;25.49;47.39
37390;BME280;39679;49.000;8.390;2022-08-19T23:12:42;100126.50;;;25.56;47.14
37390;BME280;39679;49.000;8.390;2022-08-19T23:17:42;100132.41;;;25.63;47.56
37390;BME280;39679;49.000;8.390;2022-08-19T23:22:44;100135.88;;;25.65;47.39
37390;BME280;39679;49.000;8.390;2022-08-19T23:27:46;100127.56;;;25.69;47.28
37390;BME280;39679;49.000;8.390;2022-08-19T23:32:46;100124.78;;;25.71;47.30
37390;BME280;39679;49.000;8.390;2022-08-19T23:37:46;100121.13;;;25.72;47.52
37390;BME280;39679;49.000;8.390;2022-08-19T23:42:48;100123.03;;;25.70;47.39
37390;BME280;39679;49.000;8.390;2022-08-19T23:47:49;100115.69;;;25.73;47.19
37390;BME280;39679;49.000;8.390;2022-08-19T23:52:54;100113.00;;;25.73;47.40
37390;BME280;39679;49.000;8.390;2022-08-19T23:57:55;100121.75;;;25.77;43.59
